createdAt,value
2018-12-24T00:02:07.722Z,1.87
2018-12-24T00:04:44.484Z,0.80
2018-12-24T00:07:23.062Z,2.13
2018-12-24T00:10:00.315Z,3.17
2018-12-24T00:12:37.089Z,0.60
2018-12-24T00:15:13.059Z,1.10
2018-12-24T00:17:48.529Z,1.10
2018-12-24T00:20:25.353Z,1.63
2018-12-24T00:22:59.480Z,2.10
2018-12-24T00:25:35.100Z,6.87
2018-12-24T00:28:15.866Z,0.60
2018-12-24T00:30:56.925Z,0.70
2018-12-24T00:33:31.357Z,7.60
2018-12-24T00:36:06.217Z,0.70
2018-12-24T00:38:49.264Z,5.53
2018-12-24T00:41:25.649Z,2.03
2018-12-24T00:44:02.039Z,1.93
2018-12-24T00:46:44.271Z,0.83
2018-12-24T00:49:18.119Z,1.57
2018-12-24T00:51:53.649Z,0.73
2018-12-24T00:54:30.271Z,0.50
2018-12-24T00:57:07.723Z,0.60
2018-12-24T00:59:47.697Z,1.13
2018-12-24T01:02:26.389Z,0.70
2018-12-24T01:05:03.855Z,0.70
2018-12-24T01:07:37.246Z,0.60
2018-12-24T01:10:09.814Z,0.83
2018-12-24T01:12:45.781Z,3.27
2018-12-24T01:15:23.767Z,0.60
2018-12-24T01:18:04.599Z,1.93
2018-12-24T01:20:41.032Z,3.37
2018-12-24T01:23:20.657Z,2.60
2018-12-24T01:25:56.672Z,3.87
2018-12-24T01:28:33.522Z,0.70
2018-12-24T01:31:09.553Z,1.17
2018-12-24T01:33:50.108Z,0.43
2018-12-24T01:36:26.308Z,0.60
2018-12-24T01:39:06.795Z,1.17
2018-12-24T01:41:43.568Z,2.37
2018-12-24T01:44:21.404Z,0.50
2018-12-24T01:46:59.784Z,0.73
2018-12-24T01:49:39.515Z,0.53
2018-12-24T01:52:15.458Z,0.53
2018-12-24T01:54:51.421Z,0.43
2018-12-24T01:57:27.722Z,0.50
2018-12-24T02:00:04.398Z,0.47
2018-12-24T02:02:42.079Z,0.60
2018-12-24T02:05:20.523Z,0.60
2018-12-24T02:07:52.365Z,0.90
2018-12-24T02:10:28.614Z,0.37
2018-12-24T02:13:07.258Z,0.57
2018-12-24T02:15:44.354Z,0.60
2018-12-24T02:18:19.575Z,0.60
2018-12-24T02:20:55.323Z,0.30
2018-12-24T02:23:31.878Z,0.60
2018-12-24T02:26:11.829Z,0.60
2018-12-24T02:28:53.826Z,0.50
2018-12-24T02:31:28.209Z,0.60
2018-12-24T02:34:07.723Z,0.57
2018-12-24T02:36:44.613Z,1.27
2018-12-24T02:39:21.516Z,0.57
2018-12-24T02:41:56.682Z,0.40
2018-12-24T02:44:32.212Z,0.63
2018-12-24T02:47:10.113Z,0.53
2018-12-24T02:49:47.722Z,0.50
2018-12-24T02:52:26.582Z,0.47
2018-12-24T02:55:04.669Z,0.40
2018-12-24T02:57:44.248Z,0.50
2018-12-24T03:00:21.467Z,0.50
2018-12-24T03:03:01.783Z,0.57
2018-12-24T03:05:34.851Z,0.40
2018-12-24T03:08:17.723Z,0.50
2018-12-24T03:10:59.270Z,0.53
2018-12-24T03:13:36.423Z,0.40
2018-12-24T03:16:15.978Z,0.57
2018-12-24T03:18:54.144Z,0.87
2018-12-24T03:21:32.184Z,0.70
2018-12-24T03:24:13.483Z,0.60
2018-12-24T03:26:48.332Z,0.53
2018-12-24T03:29:25.861Z,0.70
2018-12-24T03:32:01.738Z,0.90
2018-12-24T03:34:39.869Z,0.97
2018-12-24T03:37:20.205Z,0.93
2018-12-24T03:39:54.484Z,0.50
2018-12-24T03:42:30.818Z,0.50
2018-12-24T03:45:10.145Z,2.67
2018-12-24T03:47:47.469Z,1.50
2018-12-24T03:50:25.584Z,4.93
2018-12-24T03:53:03.692Z,5.23
2018-12-24T03:55:41.730Z,3.10
2018-12-24T03:58:15.103Z,1.03
2018-12-24T04:00:48.406Z,3.97
2018-12-24T04:03:26.367Z,1.60
2018-12-24T04:06:05.743Z,1.83
2018-12-24T04:08:43.846Z,3.77
2018-12-24T04:11:17.723Z,0.70
2018-12-24T04:13:56.206Z,0.63
2018-12-24T04:16:32.730Z,2.20
2018-12-24T04:19:07.722Z,1.07
2018-12-24T04:21:47.017Z,2.70
2018-12-24T04:24:21.534Z,1.50
2018-12-24T04:26:57.722Z,0.97
2018-12-24T04:29:32.155Z,2.70
2018-12-24T04:32:08.629Z,0.80
2018-12-24T04:34:42.539Z,1.57
2018-12-24T04:37:19.932Z,2.63
2018-12-24T04:39:57.723Z,0.90
2018-12-24T04:42:41.407Z,1.33
2018-12-24T04:45:16.743Z,0.87
2018-12-24T04:47:51.550Z,2.27
2018-12-24T04:50:27.786Z,1.03
2018-12-24T04:53:02.239Z,0.47
2018-12-24T04:55:43.321Z,1.37
2018-12-24T04:58:19.449Z,0.50
2018-12-24T05:00:55.268Z,0.60
2018-12-24T05:03:33.611Z,0.20
2018-12-24T05:06:13.210Z,0.50
2018-12-24T05:08:49.398Z,0.47
2018-12-24T05:11:27.722Z,0.80
2018-12-24T05:14:05.937Z,0.50
2018-12-24T05:16:43.341Z,1.27
2018-12-24T05:19:19.401Z,0.80
2018-12-24T05:21:57.723Z,0.40
2018-12-24T05:24:36.594Z,0.30
2018-12-24T05:27:15.786Z,0.73
2018-12-24T05:29:53.526Z,0.40
2018-12-24T05:32:30.588Z,0.53
2018-12-24T05:35:06.965Z,0.60
2018-12-24T05:37:45.705Z,0.60
2018-12-24T05:40:21.886Z,0.47
2018-12-24T05:43:08.209Z,0.70
2018-12-24T05:45:45.821Z,0.80
2018-12-24T05:48:19.610Z,0.30
2018-12-24T05:50:57.425Z,0.73
2018-12-24T05:53:33.744Z,1.47
2018-12-24T05:56:19.574Z,0.47
2018-12-24T05:58:57.723Z,0.40
2018-12-24T06:01:34.815Z,0.40
2018-12-24T06:04:09.041Z,0.50
2018-12-24T06:06:49.017Z,0.60
2018-12-24T06:09:25.070Z,1.63
2018-12-24T06:12:07.163Z,0.50
2018-12-24T06:14:46.774Z,0.50
2018-12-24T06:17:26.085Z,0.77
2018-12-24T06:20:05.954Z,0.60
2018-12-24T06:22:48.742Z,0.70
2018-12-24T06:25:23.057Z,0.60
2018-12-24T06:27:58.493Z,1.17
2018-12-24T06:30:37.397Z,1.70
2018-12-24T06:33:16.293Z,1.80
2018-12-24T06:35:49.253Z,0.80
2018-12-24T06:38:27.724Z,0.90
2018-12-24T06:41:06.367Z,1.20
2018-12-24T06:43:47.724Z,0.80
2018-12-24T06:46:25.076Z,0.60
2018-12-24T06:49:03.093Z,0.70
2018-12-24T06:51:38.492Z,0.50
2018-12-24T06:54:17.725Z,0.77
2018-12-24T06:56:55.594Z,0.50
2018-12-24T06:59:29.208Z,0.60
2018-12-24T07:02:14.208Z,0.70
2018-12-24T07:04:51.663Z,0.63
2018-12-24T07:07:30.109Z,1.60
2018-12-24T07:10:07.255Z,0.70
2018-12-24T07:12:42.997Z,0.60
2018-12-24T07:15:19.218Z,0.80
2018-12-24T07:18:00.116Z,0.93
2018-12-24T07:20:38.629Z,1.10
2018-12-24T07:23:17.724Z,0.80
2018-12-24T07:25:56.351Z,0.70
2018-12-24T07:28:30.421Z,0.70
2018-12-24T07:31:07.726Z,0.60
2018-12-24T07:33:49.618Z,0.70
2018-12-24T07:36:27.154Z,1.43
2018-12-24T07:39:07.725Z,1.47
2018-12-24T07:41:45.407Z,1.00
2018-12-24T07:44:24.309Z,1.30
2018-12-24T07:47:03.025Z,1.17
2018-12-24T07:49:41.949Z,1.33
2018-12-24T07:52:21.707Z,1.00
2018-12-24T07:54:55.260Z,1.30
2018-12-24T07:57:32.539Z,1.20
2018-12-24T08:00:07.724Z,1.00
2018-12-24T08:02:49.004Z,1.20
2018-12-24T08:05:25.642Z,1.47
2018-12-24T08:08:06.013Z,1.57
2018-12-24T08:10:42.909Z,2.50
2018-12-24T08:13:19.439Z,1.43
2018-12-24T08:15:54.383Z,1.50
2018-12-24T08:18:34.762Z,1.80
2018-12-24T08:21:03.424Z,1.67
2018-12-24T08:23:43.072Z,1.60
2018-12-24T08:26:21.740Z,1.63
2018-12-24T08:29:00.136Z,2.20
2018-12-24T08:31:38.802Z,1.73
2018-12-24T08:34:14.736Z,1.70
2018-12-24T08:36:51.235Z,1.70
2018-12-24T08:39:27.725Z,1.60
2018-12-24T08:42:06.831Z,1.70
2018-12-24T08:44:41.822Z,2.40
2018-12-24T08:47:16.086Z,1.57
2018-12-24T08:49:50.374Z,1.97
2018-12-24T08:52:22.563Z,2.20
2018-12-24T08:54:57.206Z,4.03
2018-12-24T08:57:33.000Z,2.30
2018-12-24T09:00:09.935Z,3.00
2018-12-24T09:02:48.733Z,2.47
2018-12-24T09:05:26.802Z,3.43
2018-12-24T09:08:07.119Z,2.90
2018-12-24T09:10:42.805Z,3.20
2018-12-24T09:13:23.304Z,2.97
2018-12-24T09:16:00.111Z,3.30
2018-12-24T09:18:37.489Z,2.53
2018-12-24T09:21:06.398Z,3.57
2018-12-24T09:23:46.213Z,7.47
2018-12-24T09:26:18.629Z,2.90
2018-12-24T09:28:56.741Z,2.73
2018-12-24T09:31:31.800Z,4.13
2018-12-24T09:34:07.667Z,2.67
2018-12-24T09:36:47.725Z,2.77
2018-12-24T09:39:22.898Z,2.90
2018-12-24T09:42:04.884Z,2.83
2018-12-24T09:44:43.666Z,3.00
2018-12-24T09:47:19.215Z,2.93
2018-12-24T09:49:56.607Z,2.63
2018-12-24T09:52:38.348Z,2.60
2018-12-24T09:55:13.689Z,3.10
2018-12-24T09:57:47.725Z,3.80
2018-12-24T10:00:24.188Z,2.70
2018-12-24T10:03:01.119Z,2.90
2018-12-24T10:05:36.502Z,3.40
2018-12-24T10:08:18.903Z,3.00
2018-12-24T10:10:59.809Z,3.30
2018-12-24T10:13:28.917Z,2.97
2018-12-24T10:16:13.231Z,2.53
2018-12-24T10:18:48.057Z,2.43
2018-12-24T10:21:25.390Z,2.57
2018-12-24T10:24:03.163Z,2.27
2018-12-24T10:26:36.362Z,2.40
2018-12-24T10:29:05.437Z,2.70
2018-12-24T10:31:48.227Z,2.70
2018-12-24T10:34:27.725Z,2.90
2018-12-24T10:37:05.010Z,2.30
2018-12-24T10:39:40.419Z,2.30
2018-12-24T10:42:16.792Z,2.73
2018-12-24T10:44:55.483Z,1.90
2018-12-24T10:47:34.613Z,3.70
2018-12-24T10:50:17.409Z,2.27
2018-12-24T10:52:52.408Z,2.30
2018-12-24T10:55:34.567Z,4.63
2018-12-24T10:58:07.388Z,3.57
2018-12-24T11:00:47.725Z,2.00
2018-12-24T11:03:25.871Z,1.90
2018-12-24T11:06:01.595Z,1.97
2018-12-24T11:08:35.419Z,2.67
2018-12-24T11:11:14.994Z,1.97
2018-12-24T11:13:50.095Z,2.30
2018-12-24T11:16:30.110Z,2.20
2018-12-24T11:19:09.010Z,1.90
2018-12-24T11:21:45.620Z,1.80
2018-12-24T11:24:22.388Z,2.17
2018-12-24T11:26:57.725Z,2.10
2018-12-24T11:29:27.725Z,1.80
2018-12-24T11:32:03.199Z,1.97
2018-12-24T11:34:40.111Z,2.00
2018-12-24T11:37:18.248Z,1.80
2018-12-24T11:39:58.577Z,3.57
2018-12-24T11:42:36.436Z,1.80
2018-12-24T11:45:10.879Z,1.70
2018-12-24T11:47:50.713Z,1.60
2018-12-24T11:50:24.728Z,1.60
2018-12-24T11:53:00.960Z,1.60
2018-12-24T11:55:39.575Z,1.60
2018-12-24T11:58:13.268Z,1.70
2018-12-24T12:00:49.242Z,1.57
2018-12-24T12:03:28.261Z,2.00
2018-12-24T12:06:04.962Z,1.30
2018-12-24T12:08:38.980Z,1.50
2018-12-24T12:11:13.319Z,1.50
2018-12-24T12:13:48.227Z,1.37
2018-12-24T12:16:25.802Z,1.77
2018-12-24T12:19:07.053Z,1.70
2018-12-24T12:21:45.190Z,2.10
2018-12-24T12:24:23.953Z,1.80
2018-12-24T12:27:00.503Z,2.00
2018-12-24T12:29:36.413Z,2.13
2018-12-24T12:32:16.498Z,2.57
2018-12-24T12:34:54.727Z,1.80
2018-12-24T12:37:33.870Z,2.90
2018-12-24T12:40:15.608Z,1.90
2018-12-24T12:42:53.821Z,1.80
2018-12-24T12:45:37.427Z,1.73
2018-12-24T12:48:18.187Z,1.97
2018-12-24T12:50:57.001Z,1.90
2018-12-24T12:53:26.540Z,1.80
2018-12-24T12:56:04.006Z,1.97
2018-12-24T12:58:40.781Z,1.40
2018-12-24T13:01:13.008Z,1.50
2018-12-24T13:03:48.271Z,1.70
2018-12-24T13:06:22.313Z,1.83
2018-12-24T13:08:59.802Z,1.50
2018-12-24T13:11:37.725Z,1.83
2018-12-24T13:14:13.681Z,1.30
2018-12-24T13:16:46.037Z,1.40
2018-12-24T13:19:17.577Z,1.53
2018-12-24T13:21:51.161Z,1.10
2018-12-24T13:24:29.763Z,1.67
2018-12-24T13:27:07.035Z,1.63
2018-12-24T13:29:37.964Z,1.40
2018-12-24T13:32:13.698Z,1.50
2018-12-24T13:34:47.507Z,1.20
2018-12-24T13:37:25.143Z,1.83
2018-12-24T13:40:00.311Z,1.60
2018-12-24T13:42:31.742Z,1.73
2018-12-24T13:45:05.783Z,1.60
2018-12-24T13:48:34.646Z,1.73
2018-12-24T13:51:19.811Z,1.40
2018-12-24T13:54:04.624Z,1.67
2018-12-24T13:56:45.726Z,1.60
2018-12-24T13:59:31.175Z,1.60
2018-12-24T14:02:17.418Z,1.43
2018-12-24T14:05:00.264Z,1.70
2018-12-24T14:07:48.528Z,1.50
2018-12-24T14:10:32.080Z,2.03
2018-12-24T14:13:17.334Z,1.90
2018-12-24T14:16:02.382Z,1.80
2018-12-24T14:18:47.308Z,2.40
2018-12-24T14:21:30.760Z,1.33
2018-12-24T14:24:14.076Z,2.70
2018-12-24T14:26:59.550Z,1.33
2018-12-24T14:29:42.515Z,1.20
2018-12-24T14:32:27.724Z,2.03
2018-12-24T14:35:10.579Z,1.40
2018-12-24T14:37:55.218Z,1.60
2018-12-24T14:40:38.438Z,1.73
2018-12-24T14:43:23.941Z,1.07
2018-12-24T14:46:07.491Z,1.33
2018-12-24T14:48:51.584Z,1.20
2018-12-24T14:52:01.438Z,0.90
2018-12-24T15:04:50.014Z,1.63
2018-12-24T15:11:08.409Z,1.60
2018-12-24T15:23:47.017Z,2.43
2018-12-24T15:26:57.724Z,1.87
2018-12-24T15:37:00.409Z,1.70
2018-12-24T15:43:16.932Z,1.30
2018-12-24T15:46:02.587Z,1.40
2018-12-24T15:48:43.939Z,1.30
2018-12-24T15:51:30.480Z,1.87
2018-12-24T15:54:13.165Z,2.13
2018-12-24T15:56:59.793Z,1.40
2018-12-24T15:59:42.492Z,1.70
2018-12-24T16:02:27.386Z,1.60
2018-12-24T16:05:12.859Z,1.37
2018-12-24T16:08:00.779Z,1.97
2018-12-24T16:10:47.688Z,1.40
2018-12-24T16:13:31.922Z,2.00
2018-12-24T16:16:14.346Z,2.50
2018-12-24T16:18:54.964Z,2.20
2018-12-24T16:21:37.483Z,2.17
2018-12-24T16:24:22.301Z,3.23
2018-12-24T16:27:07.532Z,3.97
2018-12-24T16:29:54.282Z,2.30
2018-12-24T16:32:35.918Z,2.77
2018-12-24T16:35:18.027Z,3.00
2018-12-24T16:38:00.947Z,4.27
2018-12-24T16:44:17.723Z,2.27
2018-12-24T16:50:01.496Z,3.00
2018-12-24T16:56:03.804Z,2.47
2018-12-24T17:02:40.554Z,3.97
2018-12-24T17:08:46.027Z,3.57
2018-12-24T17:11:28.241Z,2.93
2018-12-24T17:14:09.654Z,3.17
2018-12-24T17:16:54.219Z,2.77
2018-12-24T17:19:39.093Z,2.90
2018-12-24T17:22:21.845Z,3.50
2018-12-24T17:25:04.791Z,2.77
2018-12-24T17:27:48.907Z,2.60
2018-12-24T17:30:26.660Z,3.60
2018-12-24T17:32:57.321Z,3.10
2018-12-24T17:35:28.750Z,2.60
2018-12-24T17:38:04.492Z,2.47
2018-12-24T17:40:36.396Z,3.10
2018-12-24T17:43:11.898Z,2.53
2018-12-24T17:45:42.899Z,2.47
2018-12-24T17:48:12.984Z,3.13
2018-12-24T17:50:47.724Z,2.27
2018-12-24T17:53:23.719Z,2.10
2018-12-24T17:55:59.423Z,2.37
2018-12-24T17:58:32.362Z,2.40
2018-12-24T18:01:05.725Z,2.80
2018-12-24T18:03:40.496Z,2.23
2018-12-24T18:06:14.284Z,2.20
2018-12-24T18:08:46.712Z,2.87
2018-12-24T18:11:22.075Z,2.40
2018-12-24T18:13:54.490Z,2.93
2018-12-24T18:16:28.566Z,2.43
2018-12-24T18:19:04.183Z,2.93
2018-12-24T18:21:38.378Z,4.30
2018-12-24T18:24:13.029Z,3.00
2018-12-24T18:26:51.219Z,2.73
2018-12-24T18:29:23.170Z,2.90
2018-12-24T18:32:05.370Z,2.73
2018-12-24T18:34:43.833Z,3.00
2018-12-24T18:37:17.235Z,3.20
2018-12-24T18:39:51.841Z,3.30
2018-12-24T18:42:30.231Z,4.17
2018-12-24T18:45:10.638Z,3.53
2018-12-24T18:47:39.078Z,3.37
2018-12-24T18:50:16.659Z,3.77
2018-12-24T18:52:53.129Z,3.90
2018-12-24T18:55:27.725Z,4.00
2018-12-24T18:58:02.838Z,3.47
2018-12-24T19:00:37.607Z,4.10
2018-12-24T19:03:13.088Z,3.40
2018-12-24T19:05:48.181Z,5.17
2018-12-24T19:08:21.685Z,5.93
2018-12-24T19:10:56.734Z,5.03
2018-12-24T19:13:28.427Z,5.33
2018-12-24T19:16:04.749Z,3.50
2018-12-24T19:18:38.531Z,4.00
2018-12-24T19:21:09.591Z,4.20
2018-12-24T19:23:43.113Z,4.07
2018-12-24T19:26:14.965Z,4.30
2018-12-24T19:28:48.288Z,4.00
2018-12-24T19:31:20.512Z,4.07
2018-12-24T19:33:54.119Z,4.47
2018-12-24T19:36:27.187Z,4.27
2018-12-24T19:39:05.154Z,3.77
2018-12-24T19:41:33.951Z,4.40
2018-12-24T19:44:04.604Z,5.50
2018-12-24T19:46:38.962Z,5.63
2018-12-24T19:49:14.006Z,5.40
2018-12-24T19:51:49.750Z,6.73
2018-12-24T19:54:19.246Z,5.30
2018-12-24T19:56:52.246Z,5.27
2018-12-24T19:59:23.478Z,5.03
2018-12-24T20:01:57.304Z,5.17
2018-12-24T20:04:31.254Z,5.67
2018-12-24T20:07:03.655Z,6.60
2018-12-24T20:09:37.695Z,5.40
2018-12-24T20:12:11.756Z,6.20
2018-12-24T20:14:47.726Z,6.60
2018-12-24T20:17:25.452Z,5.90
2018-12-24T20:20:04.935Z,6.50
2018-12-24T20:22:36.948Z,6.20
2018-12-24T20:25:13.185Z,6.17
2018-12-24T20:27:52.078Z,6.40
2018-12-24T20:30:27.725Z,6.40
2018-12-24T20:33:05.051Z,6.63
2018-12-24T20:35:34.959Z,5.97
2018-12-24T20:38:09.413Z,6.53
2018-12-24T20:40:40.012Z,8.60
2018-12-24T20:43:15.145Z,5.93
2018-12-24T20:45:47.725Z,6.10
2018-12-24T20:48:23.477Z,6.03
2018-12-24T20:51:02.182Z,5.63
2018-12-24T20:53:40.034Z,5.77
2018-12-24T20:56:14.567Z,5.33
2018-12-24T20:58:47.357Z,5.17
2018-12-24T21:01:19.593Z,5.40
2018-12-24T21:03:50.914Z,5.50
2018-12-24T21:06:25.290Z,5.57
2018-12-24T21:08:59.115Z,5.33
2018-12-24T21:11:34.539Z,5.23
2018-12-24T21:14:09.687Z,5.60
2018-12-24T21:16:43.247Z,5.70
2018-12-24T21:19:16.295Z,5.97
2018-12-24T21:21:50.714Z,6.63
2018-12-24T21:24:27.722Z,6.57
2018-12-24T21:27:04.806Z,7.00
2018-12-24T21:29:40.633Z,5.73
2018-12-24T21:32:15.354Z,6.60
2018-12-24T21:34:52.259Z,6.40
2018-12-24T21:37:27.111Z,6.60
2018-12-24T21:40:03.527Z,6.17
2018-12-24T21:42:36.551Z,8.37
2018-12-24T21:45:14.054Z,7.27
2018-12-24T21:47:43.020Z,7.97
2018-12-24T21:50:15.173Z,7.60
2018-12-24T21:52:46.090Z,7.10
2018-12-24T21:55:18.963Z,7.93
2018-12-24T21:57:57.722Z,8.30
2018-12-24T22:00:39.650Z,7.63
2018-12-24T22:03:13.202Z,8.87
2018-12-24T22:05:55.415Z,8.37
2018-12-24T22:08:33.068Z,8.20
2018-12-24T22:11:14.246Z,8.27
2018-12-24T22:13:53.736Z,9.13
2018-12-24T22:16:37.164Z,8.33
2018-12-24T22:19:12.791Z,9.27
2018-12-24T22:21:48.682Z,9.83
2018-12-24T22:24:25.702Z,9.83
2018-12-24T22:27:07.721Z,9.00
2018-12-24T22:29:42.999Z,9.33
2018-12-24T22:32:17.619Z,9.37
2018-12-24T22:34:55.243Z,9.40
2018-12-24T22:37:33.891Z,9.57
2018-12-24T22:40:13.354Z,9.50
2018-12-24T22:42:49.026Z,10.13
2018-12-24T22:45:27.270Z,9.80
2018-12-24T22:48:05.383Z,12.07
2018-12-24T22:50:43.996Z,10.50
2018-12-24T22:53:18.778Z,11.80
2018-12-24T22:55:54.912Z,10.03
2018-12-24T22:58:31.807Z,10.70
2018-12-24T23:01:12.770Z,11.20
2018-12-24T23:03:47.720Z,10.97
2018-12-24T23:06:22.999Z,10.90
2018-12-24T23:09:03.058Z,12.10
2018-12-24T23:11:41.946Z,11.60
2018-12-24T23:14:24.216Z,11.20
2018-12-24T23:17:02.979Z,11.17
2018-12-24T23:19:44.675Z,10.50
2018-12-24T23:22:23.669Z,10.97
2018-12-24T23:25:03.923Z,12.07
2018-12-24T23:27:41.984Z,11.23
2018-12-24T23:30:24.575Z,13.00
2018-12-24T23:33:01.768Z,10.83
2018-12-24T23:35:38.630Z,10.23
2018-12-24T23:38:17.721Z,10.13
2018-12-24T23:40:53.163Z,10.53
2018-12-24T23:43:31.066Z,10.40
2018-12-24T23:46:11.886Z,9.23
2018-12-24T23:48:57.509Z,9.27
2018-12-24T23:51:35.194Z,9.77
2018-12-24T23:54:12.142Z,8.93
2018-12-24T23:56:51.502Z,8.63
2018-12-24T23:59:27.721Z,10.20
